createdAt,value
2022-11-05T09:28:18.191Z,96791.09
2022-11-05T10:31:38.265Z,96837.94
2022-11-05T10:32:42.818Z,96847.06
2022-11-05T10:51:07.496Z,96856.63
2022-11-05T10:52:34.065Z,96857.13
2022-11-05T10:53:38.933Z,96837.28
2022-11-05T10:54:41.184Z,96837.16
2022-11-05T10:55:48.646Z,96857.50
2022-11-05T10:56:50.320Z,96862.91
2022-11-05T10:57:52.397Z,96853.03
2022-11-05T10:58:56.068Z,96845.94
2022-11-05T11:00:18.519Z,96864.44
2022-11-05T11:01:20.549Z,96862.56
2022-11-05T11:02:28.207Z,96858.72
2022-11-05T11:09:03.388Z,96867.34
2022-11-05T11:10:08.877Z,96851.16
2022-11-05T11:11:12.800Z,96857.47
2022-11-05T11:30:21.147Z,96817.84
2022-11-05T11:31:25.666Z,96849.50
2022-11-05T11:32:33.143Z,96860.28
2022-11-05T11:39:05.986Z,96868.41
2022-11-05T11:40:36.629Z,96873.59
2022-11-05T11:41:41.929Z,96857.81
2022-11-05T11:42:55.629Z,96868.03
2022-11-05T11:44:02.720Z,96862.97
2022-11-05T11:58:47.055Z,96863.16
2022-11-05T12:00:07.616Z,96857.66
2022-11-05T12:01:49.730Z,96855.91
2022-11-05T12:03:11.829Z,96875.91
2022-11-05T12:04:32.458Z,96880.63
2022-11-05T12:05:44.197Z,96873.69
2022-11-05T12:06:54.486Z,96874.25
2022-11-05T12:08:03.195Z,96878.38
2022-11-05T12:09:34.439Z,96882.97
2022-11-05T12:10:51.556Z,96873.25
2022-11-05T12:12:05.331Z,96864.41
2022-11-05T12:13:18.779Z,96875.56
2022-11-05T12:14:52.079Z,96852.84
2022-11-05T12:16:05.294Z,96869.22
2022-11-05T12:17:16.759Z,96853.78
2022-11-05T12:18:43.117Z,96824.94
2022-11-05T12:20:04.374Z,96863.25
2022-11-05T12:21:51.395Z,96862.81
2022-11-05T12:23:12.068Z,96868.81
2022-11-05T12:24:35.472Z,96868.63
2022-11-05T12:25:54.255Z,96860.78
2022-11-05T12:27:33.199Z,96862.81
2022-11-05T12:29:16.806Z,96863.41
2022-11-05T12:30:20.680Z,96869.28
2022-11-05T12:31:59.449Z,96863.34
2022-11-05T12:39:41.555Z,96866.69
2022-11-05T12:41:01.087Z,96865.97
2022-11-05T12:42:13.008Z,96853.50
2022-11-05T12:43:35.831Z,96865.41
2022-11-05T12:44:57.979Z,96823.13
2022-11-05T12:46:09.259Z,96862.75
2022-11-05T12:47:28.475Z,96855.44
2022-11-05T12:48:47.560Z,96865.06
2022-11-05T12:50:10.367Z,96856.34
2022-11-05T12:51:33.044Z,96864.22
2022-11-05T12:53:08.138Z,96837.41
2022-11-05T12:54:15.060Z,96859.53
2022-11-05T12:55:25.290Z,96865.59
2022-11-05T12:56:44.263Z,96856.56
2022-11-05T12:57:49.219Z,96859.03
2022-11-05T12:59:22.963Z,96860.19
2022-11-05T13:00:26.885Z,96843.63
2022-11-05T13:01:50.431Z,96863.41
2022-11-05T13:08:03.719Z,96874.19
2022-11-05T13:09:15.276Z,96866.22
2022-11-05T13:10:31.679Z,96868.41
2022-11-05T13:11:52.113Z,96859.84
2022-11-05T13:13:02.426Z,96875.03
2022-11-05T15:21:21.847Z,96908.81
2022-11-05T15:22:30.591Z,96924.34
2022-11-05T15:23:52.987Z,96917.19
2022-11-05T15:24:55.464Z,96920.72
2022-11-05T15:26:14.504Z,96898.09
2022-11-05T15:27:34.074Z,96916.63
2022-11-05T15:28:44.593Z,96910.34
2022-11-05T15:29:50.084Z,96900.31
2022-11-05T15:30:58.376Z,96919.22
2022-11-05T15:31:59.977Z,96913.28
2022-11-05T15:36:47.513Z,96895.09
2022-11-05T15:37:54.650Z,96915.75
2022-11-05T15:39:28.080Z,96883.88
2022-11-05T15:40:30.467Z,96920.69
